sensor_id;sensor_type;location;lat;lon;timestamp;pressure;altitude;pressure_sealevel;temperature
48003;BMP280;33768;48.578;11.574;2022-11-23T00:01:38;95235.84;;;4.84
48003;BMP280;33768;48.578;11.574;2022-11-23T00:04:42;95235.31;;;4.86
48003;BMP280;33768;48.578;11.574;2022-11-23T00:07:46;95240.22;;;4.87
48003;BMP280;33768;48.578;11.574;2022-11-23T00:10:50;95234.50;;;4.91
48003;BMP280;33768;48.578;11.574;2022-11-23T00:13:55;95243.56;;;4.93
48003;BMP280;33768;48.578;11.574;2022-11-23T00:16:59;95232.97;;;4.95
48003;BMP280;33768;48.578;11.574;2022-11-23T00:20:05;95243.28;;;4.97
48003;BMP280;33768;48.578;11.574;2022-11-23T00:23:09;95241.06;;;4.95
48003;BMP280;33768;48.578;11.574;2022-11-23T00:26:15;95245.03;;;4.94
48003;BMP280;33768;48.578;11.574;2022-11-23T00:29:19;95249.19;;;4.95
48003;BMP280;33768;48.578;11.574;2022-11-23T00:32:23;95239.63;;;4.94
48003;BMP280;33768;48.578;11.574;2022-11-23T00:35:27;95252.91;;;4.92
48003;BMP280;33768;48.578;11.574;2022-11-23T00:38:32;95248.75;;;4.91
48003;BMP280;33768;48.578;11.574;2022-11-23T00:41:36;95260.09;;;4.90
48003;BMP280;33768;48.578;11.574;2022-11-23T00:44:40;95251.44;;;4.91
48003;BMP280;33768;48.578;11.574;2022-11-23T00:47:44;95242.38;;;4.89
48003;BMP280;33768;48.578;11.574;2022-11-23T00:50:48;95248.59;;;4.84
48003;BMP280;33768;48.578;11.574;2022-11-23T00:53:52;95249.38;;;4.84
48003;BMP280;33768;48.578;11.574;2022-11-23T00:56:57;95249.38;;;4.84
48003;BMP280;33768;48.578;11.574;2022-11-23T01:00:01;95237.28;;;4.85
48003;BMP280;33768;48.578;11.574;2022-11-23T01:03:07;95240.00;;;4.85
48003;BMP280;33768;48.578;11.574;2022-11-23T01:06:13;95226.97;;;4.84
48003;BMP280;33768;48.578;11.574;2022-11-23T01:09:18;95240.09;;;4.80
48003;BMP280;33768;48.578;11.574;2022-11-23T01:12:27;95237.88;;;4.78
48003;BMP280;33768;48.578;11.574;2022-11-23T01:15:32;95252.22;;;4.73
48003;BMP280;33768;48.578;11.574;2022-11-23T01:18:35;95256.03;;;4.65
48003;BMP280;33768;48.578;11.574;2022-11-23T01:21:40;95237.19;;;4.60
48003;BMP280;33768;48.578;11.574;2022-11-23T01:24:44;95248.38;;;4.51
48003;BMP280;33768;48.578;11.574;2022-11-23T01:27:49;95246.28;;;4.44
48003;BMP280;33768;48.578;11.574;2022-11-23T01:30:52;95248.31;;;4.38
48003;BMP280;33768;48.578;11.574;2022-11-23T01:33:59;95254.00;;;4.35
48003;BMP280;33768;48.578;11.574;2022-11-23T01:37:04;95256.47;;;4.33
48003;BMP280;33768;48.578;11.574;2022-11-23T01:40:09;95260.94;;;4.30
48003;BMP280;33768;48.578;11.574;2022-11-23T01:43:16;95261.88;;;4.33
48003;BMP280;33768;48.578;11.574;2022-11-23T01:46:21;95258.25;;;4.30
48003;BMP280;33768;48.578;11.574;2022-11-23T01:49:26;95265.31;;;4.33
48003;BMP280;33768;48.578;11.574;2022-11-23T01:52:32;95267.28;;;4.33
48003;BMP280;33768;48.578;11.574;2022-11-23T01:55:37;95269.28;;;4.32
48003;BMP280;33768;48.578;11.574;2022-11-23T01:58:44;95290.66;;;4.30
48003;BMP280;33768;48.578;11.574;2022-11-23T02:01:50;95285.25;;;4.30
48003;BMP280;33768;48.578;11.574;2022-11-23T02:04:56;95283.28;;;4.31
48003;BMP280;33768;48.578;11.574;2022-11-23T02:08:02;95283.81;;;4.29
48003;BMP280;33768;48.578;11.574;2022-11-23T02:11:08;95283.06;;;4.29
48003;BMP280;33768;48.578;11.574;2022-11-23T02:14:14;95287.94;;;4.30
48003;BMP280;33768;48.578;11.574;2022-11-23T02:17:18;95295.31;;;4.30
48003;BMP280;33768;48.578;11.574;2022-11-23T02:20:23;95293.13;;;4.28
48003;BMP280;33768;48.578;11.574;2022-11-23T02:23:29;95288.25;;;4.27
48003;BMP280;33768;48.578;11.574;2022-11-23T02:26:35;95297.16;;;4.22
48003;BMP280;33768;48.578;11.574;2022-11-23T02:29:41;95290.78;;;4.19
48003;BMP280;33768;48.578;11.574;2022-11-23T02:32:45;95282.47;;;4.17
48003;BMP280;33768;48.578;11.574;2022-11-23T02:35:52;95279.53;;;4.15
48003;BMP280;33768;48.578;11.574;2022-11-23T02:38:58;95275.88;;;4.13
48003;BMP280;33768;48.578;11.574;2022-11-23T02:42:05;95278.38;;;4.11
48003;BMP280;33768;48.578;11.574;2022-11-23T02:48:32;95279.69;;;4.04
48003;BMP280;33768;48.578;11.574;2022-11-23T02:51:40;95284.13;;;4.02
48003;BMP280;33768;48.578;11.574;2022-11-23T02:54:44;95276.53;;;4.01
48003;BMP280;33768;48.578;11.574;2022-11-23T02:57:49;95283.19;;;4.00
48003;BMP280;33768;48.578;11.574;2022-11-23T03:00:53;95281.72;;;3.99
48003;BMP280;33768;48.578;11.574;2022-11-23T03:03:59;95293.53;;;3.96
48003;BMP280;33768;48.578;11.574;2022-11-23T03:07:06;95287.47;;;3.90
48003;BMP280;33768;48.578;11.574;2022-11-23T03:10:10;95293.66;;;3.85
48003;BMP280;33768;48.578;11.574;2022-11-23T03:13:15;95288.09;;;3.77
48003;BMP280;33768;48.578;11.574;2022-11-23T03:16:19;95285.00;;;3.68
48003;BMP280;33768;48.578;11.574;2022-11-23T03:19:25;95274.06;;;3.61
48003;BMP280;33768;48.578;11.574;2022-11-23T03:22:30;95289.53;;;3.55
48003;BMP280;33768;48.578;11.574;2022-11-23T03:25:34;95296.50;;;3.45
48003;BMP280;33768;48.578;11.574;2022-11-23T03:28:41;95290.72;;;3.36
48003;BMP280;33768;48.578;11.574;2022-11-23T03:31:44;95297.94;;;3.22
48003;BMP280;33768;48.578;11.574;2022-11-23T03:34:51;95300.50;;;3.10
48003;BMP280;33768;48.578;11.574;2022-11-23T03:37:57;95294.66;;;3.06
48003;BMP280;33768;48.578;11.574;2022-11-23T03:41:01;95300.84;;;3.01
48003;BMP280;33768;48.578;11.574;2022-11-23T03:44:17;95295.50;;;2.95
48003;BMP280;33768;48.578;11.574;2022-11-23T03:47:21;95290.88;;;2.90
48003;BMP280;33768;48.578;11.574;2022-11-23T03:50:25;95285.72;;;2.87
48003;BMP280;33768;48.578;11.574;2022-11-23T03:53:29;95286.50;;;2.82
48003;BMP280;33768;48.578;11.574;2022-11-23T03:56:34;95284.84;;;2.74
48003;BMP280;33768;48.578;11.574;2022-11-23T03:59:38;95290.00;;;2.72
48003;BMP280;33768;48.578;11.574;2022-11-23T04:02:45;95287.13;;;2.64
48003;BMP280;33768;48.578;11.574;2022-11-23T04:06:09;95283.75;;;2.58
48003;BMP280;33768;48.578;11.574;2022-11-23T04:09:32;95293.31;;;2.54
48003;BMP280;33768;48.578;11.574;2022-11-23T04:12:42;95294.59;;;2.48
48003;BMP280;33768;48.578;11.574;2022-11-23T04:15:46;95287.28;;;2.43
48003;BMP280;33768;48.578;11.574;2022-11-23T04:18:50;95287.50;;;2.39
48003;BMP280;33768;48.578;11.574;2022-11-23T04:21:55;95296.34;;;2.34
48003;BMP280;33768;48.578;11.574;2022-11-23T04:24:59;95298.59;;;2.30
48003;BMP280;33768;48.578;11.574;2022-11-23T04:28:04;95290.50;;;2.30
48003;BMP280;33768;48.578;11.574;2022-11-23T04:31:09;95297.34;;;2.31
48003;BMP280;33768;48.578;11.574;2022-11-23T04:34:24;95301.53;;;2.32
48003;BMP280;33768;48.578;11.574;2022-11-23T04:37:31;95294.44;;;2.29
48003;BMP280;33768;48.578;11.574;2022-11-23T04:40:36;95294.22;;;2.27
48003;BMP280;33768;48.578;11.574;2022-11-23T04:43:41;95290.00;;;2.32
48003;BMP280;33768;48.578;11.574;2022-11-23T04:46:46;95289.75;;;2.35
48003;BMP280;33768;48.578;11.574;2022-11-23T04:49:51;95288.03;;;2.38
48003;BMP280;33768;48.578;11.574;2022-11-23T04:52:56;95297.31;;;2.42
48003;BMP280;33768;48.578;11.574;2022-11-23T04:56:08;95295.59;;;2.45
48003;BMP280;33768;48.578;11.574;2022-11-23T04:59:16;95281.84;;;2.48
48003;BMP280;33768;48.578;11.574;2022-11-23T05:02:20;95289.66;;;2.51
48003;BMP280;33768;48.578;11.574;2022-11-23T05:05:27;95291.84;;;2.53
48003;BMP280;33768;48.578;11.574;2022-11-23T05:08:31;95275.19;;;2.54
48003;BMP280;33768;48.578;11.574;2022-11-23T05:12:00;95288.63;;;2.60
48003;BMP280;33768;48.578;11.574;2022-11-23T05:15:06;95282.47;;;2.65
48003;BMP280;33768;48.578;11.574;2022-11-23T05:18:15;95270.94;;;2.70
48003;BMP280;33768;48.578;11.574;2022-11-23T05:21:20;95271.88;;;2.78
48003;BMP280;33768;48.578;11.574;2022-11-23T05:24:25;95265.69;;;2.82
48003;BMP280;33768;48.578;11.574;2022-11-23T05:27:55;95267.84;;;2.89
48003;BMP280;33768;48.578;11.574;2022-11-23T05:33:01;95271.44;;;2.97
48003;BMP280;33768;48.578;11.574;2022-11-23T05:36:08;95275.84;;;3.00
48003;BMP280;33768;48.578;11.574;2022-11-23T05:39:15;95272.41;;;3.00
48003;BMP280;33768;48.578;11.574;2022-11-23T05:42:21;95269.72;;;3.00
48003;BMP280;33768;48.578;11.574;2022-11-23T05:45:26;95276.09;;;2.97
48003;BMP280;33768;48.578;11.574;2022-11-23T05:48:32;95264.59;;;2.96
48003;BMP280;33768;48.578;11.574;2022-11-23T05:51:37;95272.16;;;3.03
48003;BMP280;33768;48.578;11.574;2022-11-23T05:54:42;95261.31;;;3.09
48003;BMP280;33768;48.578;11.574;2022-11-23T05:57:49;95268.63;;;3.13
48003;BMP280;33768;48.578;11.574;2022-11-23T06:01:00;95270.06;;;3.14
48003;BMP280;33768;48.578;11.574;2022-11-23T06:04:11;95267.84;;;3.18
48003;BMP280;33768;48.578;11.574;2022-11-23T06:07:24;95266.34;;;3.23
48003;BMP280;33768;48.578;11.574;2022-11-23T06:10:42;95267.50;;;3.27
48003;BMP280;33768;48.578;11.574;2022-11-23T06:13:48;95268.25;;;3.28
48003;BMP280;33768;48.578;11.574;2022-11-23T06:16:54;95258.81;;;3.40
48003;BMP280;33768;48.578;11.574;2022-11-23T06:20:18;95261.28;;;3.38
48003;BMP280;33768;48.578;11.574;2022-11-23T06:23:31;95260.09;;;3.33
48003;BMP280;33768;48.578;11.574;2022-11-23T06:26:36;95258.13;;;3.34
48003;BMP280;33768;48.578;11.574;2022-11-23T06:29:41;95267.41;;;3.38
48003;BMP280;33768;48.578;11.574;2022-11-23T06:32:46;95270.84;;;3.39
48003;BMP280;33768;48.578;11.574;2022-11-23T06:35:55;95271.34;;;3.37
48003;BMP280;33768;48.578;11.574;2022-11-23T06:39:01;95276.00;;;3.37
48003;BMP280;33768;48.578;11.574;2022-11-23T06:42:06;95280.66;;;3.36
48003;BMP280;33768;48.578;11.574;2022-11-23T06:45:11;95277.69;;;3.40
48003;BMP280;33768;48.578;11.574;2022-11-23T06:48:15;95274.72;;;3.43
48003;BMP280;33768;48.578;11.574;2022-11-23T06:51:23;95285.94;;;3.47
48003;BMP280;33768;48.578;11.574;2022-11-23T06:54:29;95282.75;;;3.48
48003;BMP280;33768;48.578;11.574;2022-11-23T06:57:34;95287.13;;;3.51
48003;BMP280;33768;48.578;11.574;2022-11-23T07:00:40;95289.53;;;3.55
48003;BMP280;33768;48.578;11.574;2022-11-23T07:03:46;95283.94;;;3.53
48003;BMP280;33768;48.578;11.574;2022-11-23T07:07:16;95296.19;;;3.54
48003;BMP280;33768;48.578;11.574;2022-11-23T07:10:26;95308.22;;;3.53
48003;BMP280;33768;48.578;11.574;2022-11-23T07:13:35;95299.84;;;3.56
48003;BMP280;33768;48.578;11.574;2022-11-23T07:16:39;95304.72;;;3.58
48003;BMP280;33768;48.578;11.574;2022-11-23T07:19:45;95299.56;;;3.60
48003;BMP280;33768;48.578;11.574;2022-11-23T07:23:07;95309.81;;;3.67
48003;BMP280;33768;48.578;11.574;2022-11-23T07:26:12;95310.97;;;3.71
48003;BMP280;33768;48.578;11.574;2022-11-23T07:29:16;95321.72;;;3.76
48003;BMP280;33768;48.578;11.574;2022-11-23T07:32:20;95322.44;;;3.77
48003;BMP280;33768;48.578;11.574;2022-11-23T07:35:24;95320.75;;;3.74
48003;BMP280;33768;48.578;11.574;2022-11-23T07:38:29;95320.75;;;3.74
48003;BMP280;33768;48.578;11.574;2022-11-23T07:41:35;95322.22;;;3.75
48003;BMP280;33768;48.578;11.574;2022-11-23T07:44:45;95318.00;;;3.79
48003;BMP280;33768;48.578;11.574;2022-11-23T07:47:57;95331.19;;;3.88
48003;BMP280;33768;48.578;11.574;2022-11-23T07:51:01;95327.81;;;4.01
48003;BMP280;33768;48.578;11.574;2022-11-23T07:54:05;95335.09;;;4.11
48003;BMP280;33768;48.578;11.574;2022-11-23T07:57:10;95334.22;;;4.21
48003;BMP280;33768;48.578;11.574;2022-11-23T08:00:14;95350.53;;;4.34
48003;BMP280;33768;48.578;11.574;2022-11-23T08:03:19;95347.03;;;4.39
48003;BMP280;33768;48.578;11.574;2022-11-23T08:06:23;95348.63;;;4.47
48003;BMP280;33768;48.578;11.574;2022-11-23T08:09:27;95345.59;;;4.56
48003;BMP280;33768;48.578;11.574;2022-11-23T08:12:31;95347.69;;;4.63
48003;BMP280;33768;48.578;11.574;2022-11-23T08:15:35;95345.34;;;4.72
48003;BMP280;33768;48.578;11.574;2022-11-23T08:18:39;95345.00;;;4.81
48003;BMP280;33768;48.578;11.574;2022-11-23T08:21:44;95348.56;;;4.89
48003;BMP280;33768;48.578;11.574;2022-11-23T08:24:48;95352.38;;;4.99
48003;BMP280;33768;48.578;11.574;2022-11-23T08:28:01;95353.00;;;5.05
48003;BMP280;33768;48.578;11.574;2022-11-23T08:31:07;95343.50;;;5.17
48003;BMP280;33768;48.578;11.574;2022-11-23T08:34:11;95337.91;;;5.28
48003;BMP280;33768;48.578;11.574;2022-11-23T08:37:17;95348.28;;;5.42
48003;BMP280;33768;48.578;11.574;2022-11-23T08:40:21;95339.44;;;5.54
48003;BMP280;33768;48.578;11.574;2022-11-23T08:43:25;95343.19;;;5.64
48003;BMP280;33768;48.578;11.574;2022-11-23T08:46:29;95339.91;;;5.71
48003;BMP280;33768;48.578;11.574;2022-11-23T08:49:33;95339.31;;;5.78
48003;BMP280;33768;48.578;11.574;2022-11-23T08:52:37;95343.59;;;5.86
48003;BMP280;33768;48.578;11.574;2022-11-23T08:55:42;95347.47;;;6.03
48003;BMP280;33768;48.578;11.574;2022-11-23T08:58:46;95344.44;;;6.20
48003;BMP280;33768;48.578;11.574;2022-11-23T09:01:51;95339.75;;;6.33
48003;BMP280;33768;48.578;11.574;2022-11-23T09:04:55;95337.03;;;6.46
48003;BMP280;33768;48.578;11.574;2022-11-23T09:08:00;95335.34;;;6.68
48003;BMP280;33768;48.578;11.574;2022-11-23T09:11:06;95338.00;;;6.81
48003;BMP280;33768;48.578;11.574;2022-11-23T09:14:10;95330.25;;;6.85
48003;BMP280;33768;48.578;11.574;2022-11-23T09:17:14;95340.47;;;6.92
48003;BMP280;33768;48.578;11.574;2022-11-23T09:20:18;95336.28;;;7.04
48003;BMP280;33768;48.578;11.574;2022-11-23T09:23:23;95335.81;;;7.13
48003;BMP280;33768;48.578;11.574;2022-11-23T09:26:27;95329.41;;;7.23
48003;BMP280;33768;48.578;11.574;2022-11-23T09:29:31;95340.16;;;7.28
48003;BMP280;33768;48.578;11.574;2022-11-23T09:32:35;95338.47;;;7.25
48003;BMP280;33768;48.578;11.574;2022-11-23T09:35:40;95344.53;;;7.31
48003;BMP280;33768;48.578;11.574;2022-11-23T09:38:43;95348.41;;;7.43
48003;BMP280;33768;48.578;11.574;2022-11-23T09:51:54;95336.41;;;7.99
48003;BMP280;33768;48.578;11.574;2022-11-23T09:55:03;95328.28;;;8.27
48003;BMP280;33768;48.578;11.574;2022-11-23T09:58:14;95323.72;;;8.57
48003;BMP280;33768;48.578;11.574;2022-11-23T10:01:19;95325.56;;;9.19
48003;BMP280;33768;48.578;11.574;2022-11-23T10:04:23;95322.16;;;9.40
48003;BMP280;33768;48.578;11.574;2022-11-23T10:08:03;95322.53;;;9.52
48003;BMP280;33768;48.578;11.574;2022-11-23T10:24:32;95305.31;;;10.01
48003;BMP280;33768;48.578;11.574;2022-11-23T10:27:37;95301.13;;;9.93
48003;BMP280;33768;48.578;11.574;2022-11-23T10:30:41;95295.31;;;9.96
48003;BMP280;33768;48.578;11.574;2022-11-23T10:34:13;95302.78;;;10.03
48003;BMP280;33768;48.578;11.574;2022-11-23T10:37:17;95290.59;;;9.97
48003;BMP280;33768;48.578;11.574;2022-11-23T10:40:25;95291.69;;;9.94
48003;BMP280;33768;48.578;11.574;2022-11-23T10:43:38;95291.31;;;10.04
48003;BMP280;33768;48.578;11.574;2022-11-23T10:46:44;95285.66;;;10.10
48003;BMP280;33768;48.578;11.574;2022-11-23T10:49:56;95283.31;;;9.99
48003;BMP280;33768;48.578;11.574;2022-11-23T10:53:18;95281.88;;;9.83
48003;BMP280;33768;48.578;11.574;2022-11-23T10:56:24;95272.25;;;9.60
48003;BMP280;33768;48.578;11.574;2022-11-23T10:59:37;95274.78;;;9.36
48003;BMP280;33768;48.578;11.574;2022-11-23T11:05:49;95279.44;;;8.99
48003;BMP280;33768;48.578;11.574;2022-11-23T11:08:56;95276.84;;;8.86
48003;BMP280;33768;48.578;11.574;2022-11-23T11:12:01;95275.19;;;8.75
48003;BMP280;33768;48.578;11.574;2022-11-23T11:18:17;95268.41;;;8.54
48003;BMP280;33768;48.578;11.574;2022-11-23T11:21:32;95274.91;;;8.51
48003;BMP280;33768;48.578;11.574;2022-11-23T11:24:44;95260.59;;;8.51
48003;BMP280;33768;48.578;11.574;2022-11-23T11:27:50;95268.22;;;8.52
48003;BMP280;33768;48.578;11.574;2022-11-23T11:34:23;95261.53;;;8.61
48003;BMP280;33768;48.578;11.574;2022-11-23T11:37:54;95252.31;;;8.71
48003;BMP280;33768;48.578;11.574;2022-11-23T11:41:05;95260.34;;;8.84
48003;BMP280;33768;48.578;11.574;2022-11-23T11:44:18;95256.22;;;8.98
48003;BMP280;33768;48.578;11.574;2022-11-23T11:47:29;95249.50;;;8.99
48003;BMP280;33768;48.578;11.574;2022-11-23T11:50:44;95247.66;;;8.94
48003;BMP280;33768;48.578;11.574;2022-11-23T11:53:57;95240.75;;;8.85
48003;BMP280;33768;48.578;11.574;2022-11-23T12:00:20;95242.16;;;8.72
48003;BMP280;33768;48.578;11.574;2022-11-23T12:03:41;95241.41;;;8.64
48003;BMP280;33768;48.578;11.574;2022-11-23T12:07:11;95238.38;;;8.67
48003;BMP280;33768;48.578;11.574;2022-11-23T12:10:27;95234.56;;;8.70
48003;BMP280;33768;48.578;11.574;2022-11-23T12:13:38;95235.66;;;8.67
48003;BMP280;33768;48.578;11.574;2022-11-23T12:17:07;95232.72;;;8.65
48003;BMP280;33768;48.578;11.574;2022-11-23T12:23:32;95228.00;;;8.58
48003;BMP280;33768;48.578;11.574;2022-11-23T12:40:12;95215.13;;;8.59
48003;BMP280;33768;48.578;11.574;2022-11-23T12:43:22;95214.75;;;8.55
48003;BMP280;33768;48.578;11.574;2022-11-23T12:50:26;95218.94;;;8.63
48003;BMP280;33768;48.578;11.574;2022-11-23T12:54:01;95218.59;;;8.74
48003;BMP280;33768;48.578;11.574;2022-11-23T12:57:32;95222.66;;;8.95
48003;BMP280;33768;48.578;11.574;2022-11-23T13:00:41;95213.59;;;9.15
48003;BMP280;33768;48.578;11.574;2022-11-23T13:10:10;95218.13;;;9.57
48003;BMP280;33768;48.578;11.574;2022-11-23T13:13:31;95213.78;;;9.54
48003;BMP280;33768;48.578;11.574;2022-11-23T13:20:29;95217.22;;;9.62
48003;BMP280;33768;48.578;11.574;2022-11-23T13:23:41;95225.38;;;9.62
48003;BMP280;33768;48.578;11.574;2022-11-23T13:30:29;95222.66;;;9.25
48003;BMP280;33768;48.578;11.574;2022-11-23T13:33:36;95230.44;;;8.99
48003;BMP280;33768;48.578;11.574;2022-11-23T13:36:41;95222.09;;;8.82
48003;BMP280;33768;48.578;11.574;2022-11-23T13:42:57;95227.53;;;8.82
48003;BMP280;33768;48.578;11.574;2022-11-23T13:52:50;95226.03;;;8.66
48003;BMP280;33768;48.578;11.574;2022-11-23T13:56:15;95220.22;;;8.62
48003;BMP280;33768;48.578;11.574;2022-11-23T14:02:28;95212.56;;;8.53
48003;BMP280;33768;48.578;11.574;2022-11-23T14:09:10;95209.78;;;8.39
48003;BMP280;33768;48.578;11.574;2022-11-23T14:12:35;95200.53;;;8.27
48003;BMP280;33768;48.578;11.574;2022-11-23T14:15:44;95205.53;;;8.15
48003;BMP280;33768;48.578;11.574;2022-11-23T14:19:05;95198.63;;;8.07
48003;BMP280;33768;48.578;11.574;2022-11-23T14:36:05;95188.59;;;7.67
48003;BMP280;33768;48.578;11.574;2022-11-23T14:39:43;95200.50;;;7.57
48003;BMP280;33768;48.578;11.574;2022-11-23T14:42:56;95199.31;;;7.45
48003;BMP280;33768;48.578;11.574;2022-11-23T14:46:02;95207.94;;;7.36
48003;BMP280;33768;48.578;11.574;2022-11-23T14:49:11;95217.28;;;7.28
48003;BMP280;33768;48.578;11.574;2022-11-23T14:52:22;95213.47;;;7.23
48003;BMP280;33768;48.578;11.574;2022-11-23T14:55:28;95211.41;;;7.17
48003;BMP280;33768;48.578;11.574;2022-11-23T14:58:32;95214.41;;;7.06
48003;BMP280;33768;48.578;11.574;2022-11-23T15:01:37;95214.84;;;6.97
48003;BMP280;33768;48.578;11.574;2022-11-23T15:05:02;95215.63;;;6.85
48003;BMP280;33768;48.578;11.574;2022-11-23T15:08:24;95217.69;;;6.71
48003;BMP280;33768;48.578;11.574;2022-11-23T15:11:31;95219.06;;;6.65
48003;BMP280;33768;48.578;11.574;2022-11-23T15:14:42;95202.31;;;6.54
48003;BMP280;33768;48.578;11.574;2022-11-23T15:17:54;95214.84;;;6.44
48003;BMP280;33768;48.578;11.574;2022-11-23T15:21:00;95213.44;;;6.30
48003;BMP280;33768;48.578;11.574;2022-11-23T15:24:19;95209.22;;;6.09
48003;BMP280;33768;48.578;11.574;2022-11-23T15:27:25;95210.56;;;5.90
48003;BMP280;33768;48.578;11.574;2022-11-23T15:30:33;95216.94;;;5.79
48003;BMP280;33768;48.578;11.574;2022-11-23T15:33:37;95213.31;;;5.77
48003;BMP280;33768;48.578;11.574;2022-11-23T15:36:42;95225.03;;;5.66
48003;BMP280;33768;48.578;11.574;2022-11-23T15:39:47;95221.81;;;5.55
48003;BMP280;33768;48.578;11.574;2022-11-23T15:42:51;95230.66;;;5.43
48003;BMP280;33768;48.578;11.574;2022-11-23T15:46:00;95238.44;;;5.33
48003;BMP280;33768;48.578;11.574;2022-11-23T15:49:05;95235.13;;;5.28
48003;BMP280;33768;48.578;11.574;2022-11-23T15:52:13;95230.31;;;5.21
48003;BMP280;33768;48.578;11.574;2022-11-23T15:55:18;95235.38;;;5.11
48003;BMP280;33768;48.578;11.574;2022-11-23T15:58:26;95229.66;;;5.02
48003;BMP280;33768;48.578;11.574;2022-11-23T16:01:31;95234.22;;;4.94
48003;BMP280;33768;48.578;11.574;2022-11-23T16:04:40;95224.09;;;4.82
48003;BMP280;33768;48.578;11.574;2022-11-23T16:07:59;95215.13;;;4.74
48003;BMP280;33768;48.578;11.574;2022-11-23T16:11:04;95206.44;;;4.63
48003;BMP280;33768;48.578;11.574;2022-11-23T16:14:25;95206.25;;;4.42
48003;BMP280;33768;48.578;11.574;2022-11-23T16:17:30;95198.31;;;4.32
48003;BMP280;33768;48.578;11.574;2022-11-23T16:20:34;95210.72;;;4.22
48003;BMP280;33768;48.578;11.574;2022-11-23T16:23:46;95223.72;;;4.23
48003;BMP280;33768;48.578;11.574;2022-11-23T16:26:52;95220.56;;;4.37
48003;BMP280;33768;48.578;11.574;2022-11-23T16:29:56;95221.16;;;4.49
48003;BMP280;33768;48.578;11.574;2022-11-23T16:33:01;95219.09;;;4.55
48003;BMP280;33768;48.578;11.574;2022-11-23T16:36:05;95211.22;;;4.57
48003;BMP280;33768;48.578;11.574;2022-11-23T16:39:10;95222.59;;;4.50
48003;BMP280;33768;48.578;11.574;2022-11-23T16:42:15;95227.94;;;4.37
48003;BMP280;33768;48.578;11.574;2022-11-23T16:45:19;95229.84;;;4.24
48003;BMP280;33768;48.578;11.574;2022-11-23T16:51:31;95221.97;;;4.07
48003;BMP280;33768;48.578;11.574;2022-11-23T16:54:35;95228.75;;;3.96
48003;BMP280;33768;48.578;11.574;2022-11-23T16:57:39;95222.03;;;3.84
48003;BMP280;33768;48.578;11.574;2022-11-23T17:00:45;95222.16;;;3.73
48003;BMP280;33768;48.578;11.574;2022-11-23T17:03:52;95227.66;;;3.62
48003;BMP280;33768;48.578;11.574;2022-11-23T17:06:56;95233.84;;;3.57
48003;BMP280;33768;48.578;11.574;2022-11-23T17:10:00;95231.44;;;3.54
48003;BMP280;33768;48.578;11.574;2022-11-23T17:13:06;95233.84;;;3.57
48003;BMP280;33768;48.578;11.574;2022-11-23T17:16:15;95236.13;;;3.53
48003;BMP280;33768;48.578;11.574;2022-11-23T17:19:20;95241.13;;;3.44
48003;BMP280;33768;48.578;11.574;2022-11-23T17:22:25;95251.97;;;3.39
48003;BMP280;33768;48.578;11.574;2022-11-23T17:25:29;95235.25;;;3.40
48003;BMP280;33768;48.578;11.574;2022-11-23T17:28:35;95250.94;;;3.42
48003;BMP280;33768;48.578;11.574;2022-11-23T17:31:39;95243.41;;;3.35
48003;BMP280;33768;48.578;11.574;2022-11-23T17:34:46;95244.97;;;3.25
48003;BMP280;33768;48.578;11.574;2022-11-23T17:37:50;95258.19;;;3.28
48003;BMP280;33768;48.578;11.574;2022-11-23T17:40:54;95243.03;;;3.25
48003;BMP280;33768;48.578;11.574;2022-11-23T17:43:58;95255.81;;;3.19
48003;BMP280;33768;48.578;11.574;2022-11-23T17:47:03;95240.41;;;3.14
48003;BMP280;33768;48.578;11.574;2022-11-23T17:50:15;95255.19;;;3.08
48003;BMP280;33768;48.578;11.574;2022-11-23T17:53:20;95260.41;;;3.01
48003;BMP280;33768;48.578;11.574;2022-11-23T17:56:25;95267.25;;;3.02
48003;BMP280;33768;48.578;11.574;2022-11-23T17:59:29;95272.91;;;2.98
48003;BMP280;33768;48.578;11.574;2022-11-23T18:02:33;95281.78;;;2.93
48003;BMP280;33768;48.578;11.574;2022-11-23T18:05:37;95269.25;;;2.96
48003;BMP280;33768;48.578;11.574;2022-11-23T18:08:42;95273.38;;;3.02
48003;BMP280;33768;48.578;11.574;2022-11-23T18:11:46;95282.59;;;3.12
48003;BMP280;33768;48.578;11.574;2022-11-23T18:14:50;95273.34;;;3.08
48003;BMP280;33768;48.578;11.574;2022-11-23T18:17:55;95254.97;;;3.06
48003;BMP280;33768;48.578;11.574;2022-11-23T18:20:59;95269.69;;;3.05
48003;BMP280;33768;48.578;11.574;2022-11-23T18:24:04;95289.00;;;3.09
48003;BMP280;33768;48.578;11.574;2022-11-23T18:27:08;95294.13;;;3.12
48003;BMP280;33768;48.578;11.574;2022-11-23T18:30:15;95300.63;;;3.22
48003;BMP280;33768;48.578;11.574;2022-11-23T18:33:20;95293.56;;;3.19
48003;BMP280;33768;48.578;11.574;2022-11-23T18:36:24;95304.91;;;3.12
48003;BMP280;33768;48.578;11.574;2022-11-23T18:39:29;95293.72;;;3.03
48003;BMP280;33768;48.578;11.574;2022-11-23T18:42:33;95291.31;;;2.94
48003;BMP280;33768;48.578;11.574;2022-11-23T18:45:37;95296.03;;;2.88
48003;BMP280;33768;48.578;11.574;2022-11-23T18:48:41;95287.22;;;2.88
48003;BMP280;33768;48.578;11.574;2022-11-23T18:51:45;95293.56;;;2.90
48003;BMP280;33768;48.578;11.574;2022-11-23T18:54:50;95296.63;;;3.05
48003;BMP280;33768;48.578;11.574;2022-11-23T18:57:54;95309.88;;;3.03
48003;BMP280;33768;48.578;11.574;2022-11-23T19:00:58;95318.97;;;3.00
48003;BMP280;33768;48.578;11.574;2022-11-23T19:04:03;95325.09;;;3.01
48003;BMP280;33768;48.578;11.574;2022-11-23T19:07:07;95329.00;;;3.00
48003;BMP280;33768;48.578;11.574;2022-11-23T19:10:12;95344.00;;;2.95
48003;BMP280;33768;48.578;11.574;2022-11-23T19:13:16;95347.69;;;2.92
48003;BMP280;33768;48.578;11.574;2022-11-23T19:16:22;95356.56;;;2.87
48003;BMP280;33768;48.578;11.574;2022-11-23T19:19:27;95370.81;;;2.77
48003;BMP280;33768;48.578;11.574;2022-11-23T19:22:32;95371.34;;;2.70
48003;BMP280;33768;48.578;11.574;2022-11-23T19:25:37;95372.34;;;2.67
48003;BMP280;33768;48.578;11.574;2022-11-23T19:28:41;95374.53;;;2.69
48003;BMP280;33768;48.578;11.574;2022-11-23T19:31:47;95367.34;;;2.82
48003;BMP280;33768;48.578;11.574;2022-11-23T19:35:02;95374.88;;;2.94
48003;BMP280;33768;48.578;11.574;2022-11-23T19:38:07;95384.84;;;3.10
48003;BMP280;33768;48.578;11.574;2022-11-23T19:41:14;95382.31;;;3.17
48003;BMP280;33768;48.578;11.574;2022-11-23T19:44:19;95382.25;;;3.28
48003;BMP280;33768;48.578;11.574;2022-11-23T19:47:23;95397.38;;;3.37
48003;BMP280;33768;48.578;11.574;2022-11-23T19:50:27;95402.28;;;3.38